Boise, ID (83722)

3:04 AM MST on December 28, 2014 (GMT -0700)
Mesa Vista | Change Station
CLOSE
Current Station
Personal Weather Station
Location: Boise, ID
Elevation: 2766 ft
Nearby Weather Stations
Active Advisory: Winter Weather Advisory

Elev 2766 ft 43.60 °N, 116.21 °W | Updated 4 seconds ago

Snow
Snow
31.5 °F
Feels Like 32 °F
N
0.0
Wind Variable Wind from East
Gusts 0.0 mph

Today
High -- | Low -- °F
--% Chance of Precip.
Yesterday
High -- | Low -- °F
Precip. -- in
8:17 AM 5:15 PM
Waxing Crescent, 46% visible
Pressure 30.12 in
Visibility 2.5 miles
Clouds Mostly Cloudy 1900 ft
Overcast 2600 ft
Windchill 32 °F
Dew Point 28 °F
Humidity 85%
Rainfall 0.00 in
Snow Depth Not available.
UV 0 out of 12
Pollen .10 out of 12
Air Quality Not available.
Flu Activity Not available.
METAR KBOI 280953Z 11006KT 2 1/2SM -SN BR BKN019 OVC026 M01/M02 A3006 RMK AO2 SLP198 P0003 T10061017

More Conditions Fewer Conditions

Pressure 30.12 in
Visibility 2.5 miles
Clouds Mostly Cloudy 1900 ft
Overcast 2600 ft
Windchill 32 °F
Dew Point 28 °F
Humidity 85%
Rainfall 0.00 in
Snow Depth Not available.
UV 0 out of 12
Pollen .10 out of 12
Air Quality Not available.
Flu Activity Not available.
METAR KBOI 280953Z 11006KT 2 1/2SM -SN BR BKN019 OVC026 M01/M02 A3006 RMK AO2 SLP198 P0003 T10061017

More Conditions Fewer Conditions

10-Day Weather Forecast

Almanac

Astronomy

Dec. 28, 2014 Rise Set
Actual Time
Civil Twilight
Nautical Twilight
Astronomical Twilight
Moon
Length of Visible Light
Length of Day
Tomorrow will be .
, % of the Moon is Illuminated

Today's Extremes

State Highs State Lows

Community

WunderPhotos

Upload Photos

1,781,207 photos uploaded!

WunderBlogs® & News

Nearby

Air Quality

  Air Quality AQ Index Pollutant
Not available.

Snow Depth

Station Depth Elevation

Earthquake Activity

City Distance Mag. Time & Date
Minimum magnitude displayed is 2.5.

Coastal Water Temperatures

Place Temperature

Nearby Weather Stations